sensor_id;sensor_type;location;lat;lon;timestamp;P1;durP1;ratioP1;P2;durP2;ratioP2
44098;SDS011;29762;50.086;14.364;2022-12-18T00:02:29;9.55;;;4.72;;
44098;SDS011;29762;50.086;14.364;2022-12-18T00:07:48;9.13;;;4.75;;
44098;SDS011;29762;50.086;14.364;2022-12-18T00:13:08;11.57;;;5.18;;
44098;SDS011;29762;50.086;14.364;2022-12-18T00:18:28;9.68;;;4.90;;
44098;SDS011;29762;50.086;14.364;2022-12-18T00:23:48;8.50;;;4.78;;
44098;SDS011;29762;50.086;14.364;2022-12-18T00:29:10;7.43;;;4.88;;
44098;SDS011;29762;50.086;14.364;2022-12-18T00:34:32;7.60;;;4.53;;
44098;SDS011;29762;50.086;14.364;2022-12-18T00:39:52;7.05;;;4.50;;
44098;SDS011;29762;50.086;14.364;2022-12-18T00:45:13;7.38;;;4.60;;
44098;SDS011;29762;50.086;14.364;2022-12-18T00:50:32;10.05;;;5.00;;
44098;SDS011;29762;50.086;14.364;2022-12-18T00:55:53;8.15;;;4.60;;
44098;SDS011;29762;50.086;14.364;2022-12-18T01:01:13;10.00;;;5.10;;
44098;SDS011;29762;50.086;14.364;2022-12-18T01:06:34;7.85;;;4.80;;
44098;SDS011;29762;50.086;14.364;2022-12-18T01:11:54;7.80;;;4.65;;
44098;SDS011;29762;50.086;14.364;2022-12-18T01:17:13;11.50;;;5.15;;
44098;SDS011;29762;50.086;14.364;2022-12-18T01:22:34;7.93;;;4.82;;
44098;SDS011;29762;50.086;14.364;2022-12-18T01:27:54;8.55;;;4.50;;
44098;SDS011;29762;50.086;14.364;2022-12-18T01:33:13;7.05;;;4.30;;
44098;SDS011;29762;50.086;14.364;2022-12-18T01:38:33;7.55;;;4.57;;
44098;SDS011;29762;50.086;14.364;2022-12-18T01:43:56;5.78;;;4.50;;
44098;SDS011;29762;50.086;14.364;2022-12-18T01:49:16;6.80;;;4.40;;
44098;SDS011;29762;50.086;14.364;2022-12-18T01:54:36;6.45;;;4.65;;
44098;SDS011;29762;50.086;14.364;2022-12-18T01:59:57;5.47;;;4.35;;
44098;SDS011;29762;50.086;14.364;2022-12-18T02:16:48;5.57;;;4.13;;
44098;SDS011;29762;50.086;14.364;2022-12-18T02:27:44;6.45;;;4.53;;
44098;SDS011;29762;50.086;14.364;2022-12-18T02:33:06;6.55;;;4.63;;
44098;SDS011;29762;50.086;14.364;2022-12-18T02:38:27;6.80;;;4.45;;
44098;SDS011;29762;50.086;14.364;2022-12-18T02:43:58;8.20;;;4.70;;
44098;SDS011;29762;50.086;14.364;2022-12-18T02:49:31;5.75;;;4.13;;
44098;SDS011;29762;50.086;14.364;2022-12-18T03:06:37;6.30;;;4.35;;
44098;SDS011;29762;50.086;14.364;2022-12-18T03:11:51;7.15;;;4.80;;
44098;SDS011;29762;50.086;14.364;2022-12-18T03:17:34;5.63;;;4.55;;
44098;SDS011;29762;50.086;14.364;2022-12-18T03:22:55;6.72;;;4.70;;
44098;SDS011;29762;50.086;14.364;2022-12-18T03:28:20;6.00;;;4.35;;
44098;SDS011;29762;50.086;14.364;2022-12-18T03:33:53;5.85;;;4.75;;
44098;SDS011;29762;50.086;14.364;2022-12-18T03:39:30;6.75;;;4.85;;
44098;SDS011;29762;50.086;14.364;2022-12-18T03:45:18;5.88;;;4.55;;
44098;SDS011;29762;50.086;14.364;2022-12-18T03:50:43;5.32;;;4.45;;
44098;SDS011;29762;50.086;14.364;2022-12-18T03:56:05;5.80;;;4.47;;
44098;SDS011;29762;50.086;14.364;2022-12-18T04:01:32;5.90;;;4.55;;
44098;SDS011;29762;50.086;14.364;2022-12-18T04:06:54;7.18;;;5.22;;
44098;SDS011;29762;50.086;14.364;2022-12-18T04:12:15;5.65;;;4.78;;
44098;SDS011;29762;50.086;14.364;2022-12-18T04:17:36;5.80;;;4.65;;
44098;SDS011;29762;50.086;14.364;2022-12-18T04:22:56;6.25;;;4.88;;
44098;SDS011;29762;50.086;14.364;2022-12-18T04:28:17;6.82;;;4.72;;
44098;SDS011;29762;50.086;14.364;2022-12-18T04:33:37;6.38;;;4.80;;
44098;SDS011;29762;50.086;14.364;2022-12-18T04:38:58;5.65;;;4.47;;
44098;SDS011;29762;50.086;14.364;2022-12-18T04:44:18;6.18;;;4.80;;
44098;SDS011;29762;50.086;14.364;2022-12-18T04:49:37;6.50;;;4.70;;
44098;SDS011;29762;50.086;14.364;2022-12-18T04:54:57;6.18;;;4.40;;
44098;SDS011;29762;50.086;14.364;2022-12-18T05:00:16;5.10;;;4.30;;
44098;SDS011;29762;50.086;14.364;2022-12-18T05:05:36;5.55;;;4.43;;
44098;SDS011;29762;50.086;14.364;2022-12-18T05:10:59;5.05;;;4.28;;
44098;SDS011;29762;50.086;14.364;2022-12-18T05:16:20;6.15;;;4.45;;
44098;SDS011;29762;50.086;14.364;2022-12-18T05:21:39;5.60;;;4.50;;
44098;SDS011;29762;50.086;14.364;2022-12-18T05:26:59;5.85;;;4.10;;
44098;SDS011;29762;50.086;14.364;2022-12-18T05:32:20;4.13;;;3.70;;
44098;SDS011;29762;50.086;14.364;2022-12-18T05:37:39;6.03;;;4.38;;
44098;SDS011;29762;50.086;14.364;2022-12-18T05:42:59;4.80;;;4.05;;
44098;SDS011;29762;50.086;14.364;2022-12-18T05:48:19;5.22;;;4.20;;
44098;SDS011;29762;50.086;14.364;2022-12-18T05:53:38;6.07;;;4.45;;
44098;SDS011;29762;50.086;14.364;2022-12-18T05:58:57;4.63;;;3.97;;
44098;SDS011;29762;50.086;14.364;2022-12-18T06:04:17;5.32;;;4.43;;
44098;SDS011;29762;50.086;14.364;2022-12-18T06:09:36;4.93;;;3.95;;
44098;SDS011;29762;50.086;14.364;2022-12-18T06:14:57;6.00;;;4.40;;
44098;SDS011;29762;50.086;14.364;2022-12-18T06:20:17;5.30;;;4.80;;
44098;SDS011;29762;50.086;14.364;2022-12-18T06:25:39;4.75;;;4.13;;
44098;SDS011;29762;50.086;14.364;2022-12-18T06:30:59;4.28;;;3.72;;
44098;SDS011;29762;50.086;14.364;2022-12-18T06:36:19;4.75;;;4.13;;
44098;SDS011;29762;50.086;14.364;2022-12-18T06:41:39;6.38;;;4.00;;
44098;SDS011;29762;50.086;14.364;2022-12-18T06:46:59;7.05;;;3.97;;
44098;SDS011;29762;50.086;14.364;2022-12-18T06:52:18;5.80;;;4.03;;
44098;SDS011;29762;50.086;14.364;2022-12-18T06:57:37;5.93;;;4.20;;
44098;SDS011;29762;50.086;14.364;2022-12-18T07:02:57;4.72;;;4.03;;
44098;SDS011;29762;50.086;14.364;2022-12-18T07:08:17;6.05;;;4.10;;
44098;SDS011;29762;50.086;14.364;2022-12-18T07:13:36;4.38;;;3.92;;
44098;SDS011;29762;50.086;14.364;2022-12-18T07:18:56;4.90;;;3.63;;
44098;SDS011;29762;50.086;14.364;2022-12-18T07:24:16;6.60;;;4.18;;
44098;SDS011;29762;50.086;14.364;2022-12-18T07:29:36;6.00;;;4.13;;
44098;SDS011;29762;50.086;14.364;2022-12-18T07:34:55;4.95;;;3.88;;
44098;SDS011;29762;50.086;14.364;2022-12-18T07:40:14;5.85;;;3.90;;
44098;SDS011;29762;50.086;14.364;2022-12-18T07:45:34;4.18;;;3.65;;
44098;SDS011;29762;50.086;14.364;2022-12-18T07:50:53;4.78;;;3.83;;
44098;SDS011;29762;50.086;14.364;2022-12-18T07:56:12;4.40;;;3.72;;
44098;SDS011;29762;50.086;14.364;2022-12-18T08:01:33;4.57;;;3.80;;
44098;SDS011;29762;50.086;14.364;2022-12-18T08:06:53;4.70;;;4.00;;
44098;SDS011;29762;50.086;14.364;2022-12-18T08:12:12;3.78;;;3.45;;
44098;SDS011;29762;50.086;14.364;2022-12-18T08:17:31;5.03;;;3.85;;
44098;SDS011;29762;50.086;14.364;2022-12-18T08:22:51;5.35;;;3.90;;
44098;SDS011;29762;50.086;14.364;2022-12-18T08:28:10;3.78;;;3.28;;
44098;SDS011;29762;50.086;14.364;2022-12-18T08:33:30;5.15;;;3.72;;
44098;SDS011;29762;50.086;14.364;2022-12-18T08:38:50;8.07;;;3.50;;
44098;SDS011;29762;50.086;14.364;2022-12-18T08:44:10;8.23;;;3.47;;
44098;SDS011;29762;50.086;14.364;2022-12-18T08:49:48;5.22;;;3.75;;
44098;SDS011;29762;50.086;14.364;2022-12-18T08:55:08;4.30;;;3.80;;
44098;SDS011;29762;50.086;14.364;2022-12-18T09:00:28;17.80;;;5.50;;
44098;SDS011;29762;50.086;14.364;2022-12-18T09:05:48;15.63;;;5.35;;
44098;SDS011;29762;50.086;14.364;2022-12-18T09:16:41;23.42;;;8.43;;
44098;SDS011;29762;50.086;14.364;2022-12-18T09:22:01;15.60;;;7.32;;
44098;SDS011;29762;50.086;14.364;2022-12-18T09:27:20;13.90;;;6.65;;
44098;SDS011;29762;50.086;14.364;2022-12-18T09:32:39;15.48;;;6.28;;
44098;SDS011;29762;50.086;14.364;2022-12-18T09:37:59;13.15;;;5.63;;
44098;SDS011;29762;50.086;14.364;2022-12-18T09:43:20;12.90;;;5.57;;
44098;SDS011;29762;50.086;14.364;2022-12-18T09:48:46;17.25;;;5.93;;
44098;SDS011;29762;50.086;14.364;2022-12-18T09:54:11;20.40;;;7.65;;
44098;SDS011;29762;50.086;14.364;2022-12-18T09:59:37;20.30;;;8.73;;
44098;SDS011;29762;50.086;14.364;2022-12-18T10:27:30;81.60;;;29.52;;
44098;SDS011;29762;50.086;14.364;2022-12-18T10:32:50;71.10;;;25.83;;
44098;SDS011;29762;50.086;14.364;2022-12-18T10:43:37;61.05;;;22.27;;
44098;SDS011;29762;50.086;14.364;2022-12-18T10:48:58;57.05;;;21.73;;
44098;SDS011;29762;50.086;14.364;2022-12-18T10:54:19;59.05;;;19.80;;
44098;SDS011;29762;50.086;14.364;2022-12-18T10:59:51;45.60;;;18.73;;
44098;SDS011;29762;50.086;14.364;2022-12-18T11:10:44;42.60;;;17.63;;
44098;SDS011;29762;50.086;14.364;2022-12-18T11:16:05;42.13;;;16.52;;
44098;SDS011;29762;50.086;14.364;2022-12-18T11:21:25;38.50;;;16.10;;
44098;SDS011;29762;50.086;14.364;2022-12-18T11:26:44;42.65;;;16.48;;
44098;SDS011;29762;50.086;14.364;2022-12-18T11:37:45;37.55;;;16.38;;
44098;SDS011;29762;50.086;14.364;2022-12-18T11:44:08;43.00;;;17.98;;
44098;SDS011;29762;50.086;14.364;2022-12-18T11:54:18;36.53;;;17.30;;
44098;SDS011;29762;50.086;14.364;2022-12-18T11:59:41;31.77;;;20.45;;
44098;SDS011;29762;50.086;14.364;2022-12-18T12:05:18;29.98;;;18.85;;
44098;SDS011;29762;50.086;14.364;2022-12-18T12:11:07;30.42;;;17.25;;
44098;SDS011;29762;50.086;14.364;2022-12-18T12:16:33;32.70;;;16.33;;
44098;SDS011;29762;50.086;14.364;2022-12-18T12:38:59;26.50;;;14.95;;
44098;SDS011;29762;50.086;14.364;2022-12-18T12:44:42;27.88;;;14.43;;
44098;SDS011;29762;50.086;14.364;2022-12-18T12:50:03;26.90;;;14.82;;
44098;SDS011;29762;50.086;14.364;2022-12-18T12:55:25;24.08;;;14.02;;
44098;SDS011;29762;50.086;14.364;2022-12-18T13:06:52;23.27;;;12.88;;
44098;SDS011;29762;50.086;14.364;2022-12-18T13:12:15;25.08;;;12.82;;
44098;SDS011;29762;50.086;14.364;2022-12-18T13:18:04;25.52;;;12.63;;
44098;SDS011;29762;50.086;14.364;2022-12-18T13:23:31;23.10;;;12.65;;
44098;SDS011;29762;50.086;14.364;2022-12-18T13:28:56;25.23;;;14.80;;
44098;SDS011;29762;50.086;14.364;2022-12-18T13:34:19;21.02;;;12.80;;
44098;SDS011;29762;50.086;14.364;2022-12-18T13:39:48;18.13;;;11.98;;
44098;SDS011;29762;50.086;14.364;2022-12-18T13:51:17;19.92;;;12.13;;
44098;SDS011;29762;50.086;14.364;2022-12-18T13:56:42;22.83;;;12.23;;
44098;SDS011;29762;50.086;14.364;2022-12-18T14:07:32;16.30;;;11.05;;
44098;SDS011;29762;50.086;14.364;2022-12-18T14:12:52;18.50;;;11.45;;
44098;SDS011;29762;50.086;14.364;2022-12-18T14:18:23;18.15;;;11.07;;
44098;SDS011;29762;50.086;14.364;2022-12-18T14:23:44;16.90;;;10.80;;
44098;SDS011;29762;50.086;14.364;2022-12-18T14:34:51;15.70;;;10.48;;
44098;SDS011;29762;50.086;14.364;2022-12-18T14:40:13;16.58;;;10.90;;
44098;SDS011;29762;50.086;14.364;2022-12-18T14:45:33;14.40;;;10.38;;
44098;SDS011;29762;50.086;14.364;2022-12-18T14:51:00;16.02;;;10.40;;
44098;SDS011;29762;50.086;14.364;2022-12-18T14:56:23;15.40;;;10.20;;
44098;SDS011;29762;50.086;14.364;2022-12-18T15:07:17;14.88;;;9.88;;
44098;SDS011;29762;50.086;14.364;2022-12-18T15:28:55;12.85;;;8.80;;
44098;SDS011;29762;50.086;14.364;2022-12-18T15:34:20;13.35;;;8.93;;
44098;SDS011;29762;50.086;14.364;2022-12-18T15:39:41;15.13;;;8.82;;
44098;SDS011;29762;50.086;14.364;2022-12-18T15:45:01;15.38;;;8.80;;
44098;SDS011;29762;50.086;14.364;2022-12-18T15:50:20;14.15;;;8.55;;
44098;SDS011;29762;50.086;14.364;2022-12-18T15:55:40;12.50;;;8.95;;
44098;SDS011;29762;50.086;14.364;2022-12-18T16:01:18;12.50;;;8.05;;
44098;SDS011;29762;50.086;14.364;2022-12-18T16:06:38;15.77;;;8.38;;
44098;SDS011;29762;50.086;14.364;2022-12-18T16:11:58;12.23;;;8.07;;
44098;SDS011;29762;50.086;14.364;2022-12-18T16:17:19;14.75;;;8.50;;
44098;SDS011;29762;50.086;14.364;2022-12-18T16:22:38;13.88;;;9.52;;
44098;SDS011;29762;50.086;14.364;2022-12-18T16:27:58;15.00;;;9.20;;
44098;SDS011;29762;50.086;14.364;2022-12-18T16:33:17;14.18;;;9.57;;
44098;SDS011;29762;50.086;14.364;2022-12-18T16:38:37;11.73;;;9.35;;
44098;SDS011;29762;50.086;14.364;2022-12-18T16:43:56;15.13;;;9.25;;
44098;SDS011;29762;50.086;14.364;2022-12-18T16:49:17;12.93;;;8.52;;
44098;SDS011;29762;50.086;14.364;2022-12-18T16:54:38;12.50;;;8.70;;
44098;SDS011;29762;50.086;14.364;2022-12-18T16:59:58;12.10;;;8.57;;
44098;SDS011;29762;50.086;14.364;2022-12-18T17:05:18;10.88;;;8.15;;
44098;SDS011;29762;50.086;14.364;2022-12-18T17:10:37;10.30;;;8.07;;
44098;SDS011;29762;50.086;14.364;2022-12-18T17:16:04;12.35;;;8.00;;
44098;SDS011;29762;50.086;14.364;2022-12-18T17:21:24;13.88;;;7.95;;
44098;SDS011;29762;50.086;14.364;2022-12-18T17:26:44;10.65;;;7.72;;
44098;SDS011;29762;50.086;14.364;2022-12-18T17:32:04;12.13;;;8.20;;
44098;SDS011;29762;50.086;14.364;2022-12-18T17:37:23;11.77;;;8.23;;
44098;SDS011;29762;50.086;14.364;2022-12-18T17:42:43;10.68;;;8.48;;
44098;SDS011;29762;50.086;14.364;2022-12-18T17:48:04;10.65;;;8.02;;
44098;SDS011;29762;50.086;14.364;2022-12-18T17:53:24;10.73;;;7.88;;
44098;SDS011;29762;50.086;14.364;2022-12-18T17:58:43;11.23;;;8.95;;
44098;SDS011;29762;50.086;14.364;2022-12-18T18:04:03;12.85;;;8.70;;
44098;SDS011;29762;50.086;14.364;2022-12-18T18:09:23;11.30;;;8.80;;
44098;SDS011;29762;50.086;14.364;2022-12-18T18:14:43;10.70;;;9.05;;
44098;SDS011;29762;50.086;14.364;2022-12-18T18:20:02;11.95;;;9.07;;
44098;SDS011;29762;50.086;14.364;2022-12-18T18:25:22;13.10;;;8.75;;
44098;SDS011;29762;50.086;14.364;2022-12-18T18:30:42;13.05;;;8.77;;
44098;SDS011;29762;50.086;14.364;2022-12-18T18:36:02;10.85;;;8.43;;
44098;SDS011;29762;50.086;14.364;2022-12-18T18:41:21;11.55;;;8.70;;
44098;SDS011;29762;50.086;14.364;2022-12-18T18:46:42;11.60;;;9.25;;
44098;SDS011;29762;50.086;14.364;2022-12-18T18:52:02;12.00;;;9.40;;
44098;SDS011;29762;50.086;14.364;2022-12-18T18:57:22;11.25;;;8.93;;
44098;SDS011;29762;50.086;14.364;2022-12-18T19:02:42;11.30;;;8.50;;
44098;SDS011;29762;50.086;14.364;2022-12-18T19:08:01;10.50;;;8.23;;
44098;SDS011;29762;50.086;14.364;2022-12-18T19:13:22;11.38;;;8.30;;
44098;SDS011;29762;50.086;14.364;2022-12-18T19:18:45;11.25;;;8.57;;
44098;SDS011;29762;50.086;14.364;2022-12-18T19:24:05;11.52;;;9.35;;
44098;SDS011;29762;50.086;14.364;2022-12-18T19:29:25;11.57;;;9.07;;
44098;SDS011;29762;50.086;14.364;2022-12-18T19:34:45;12.23;;;9.50;;
44098;SDS011;29762;50.086;14.364;2022-12-18T19:40:04;11.38;;;9.60;;
44098;SDS011;29762;50.086;14.364;2022-12-18T19:45:25;11.95;;;9.30;;
44098;SDS011;29762;50.086;14.364;2022-12-18T19:50:44;11.18;;;9.40;;
44098;SDS011;29762;50.086;14.364;2022-12-18T19:56:08;13.38;;;9.88;;
44098;SDS011;29762;50.086;14.364;2022-12-18T20:01:29;12.80;;;9.30;;
44098;SDS011;29762;50.086;14.364;2022-12-18T20:06:50;13.45;;;9.77;;
44098;SDS011;29762;50.086;14.364;2022-12-18T20:12:10;13.98;;;10.20;;
44098;SDS011;29762;50.086;14.364;2022-12-18T20:17:30;14.75;;;10.20;;
44098;SDS011;29762;50.086;14.364;2022-12-18T20:22:49;14.35;;;9.77;;
44098;SDS011;29762;50.086;14.364;2022-12-18T20:28:09;14.80;;;10.23;;
44098;SDS011;29762;50.086;14.364;2022-12-18T20:33:29;14.15;;;10.45;;
44098;SDS011;29762;50.086;14.364;2022-12-18T20:38:49;14.10;;;9.52;;
44098;SDS011;29762;50.086;14.364;2022-12-18T20:44:13;15.18;;;9.40;;
44098;SDS011;29762;50.086;14.364;2022-12-18T20:49:33;16.13;;;10.13;;
44098;SDS011;29762;50.086;14.364;2022-12-18T20:54:53;15.38;;;9.82;;
44098;SDS011;29762;50.086;14.364;2022-12-18T21:00:13;13.82;;;9.40;;
44098;SDS011;29762;50.086;14.364;2022-12-18T21:05:33;18.98;;;10.68;;
44098;SDS011;29762;50.086;14.364;2022-12-18T21:10:53;17.50;;;10.45;;
44098;SDS011;29762;50.086;14.364;2022-12-18T21:16:13;17.15;;;10.18;;
44098;SDS011;29762;50.086;14.364;2022-12-18T21:21:32;13.02;;;9.88;;
44098;SDS011;29762;50.086;14.364;2022-12-18T21:26:52;19.67;;;10.65;;
44098;SDS011;29762;50.086;14.364;2022-12-18T21:32:12;15.57;;;9.95;;
44098;SDS011;29762;50.086;14.364;2022-12-18T21:37:32;14.32;;;9.60;;
44098;SDS011;29762;50.086;14.364;2022-12-18T21:42:51;14.50;;;9.70;;
44098;SDS011;29762;50.086;14.364;2022-12-18T21:48:30;13.50;;;9.05;;
44098;SDS011;29762;50.086;14.364;2022-12-18T21:53:49;13.63;;;9.80;;
44098;SDS011;29762;50.086;14.364;2022-12-18T21:59:09;15.50;;;9.70;;
44098;SDS011;29762;50.086;14.364;2022-12-18T22:04:31;14.57;;;9.60;;
44098;SDS011;29762;50.086;14.364;2022-12-18T22:09:51;15.60;;;9.70;;
44098;SDS011;29762;50.086;14.364;2022-12-18T22:15:10;12.23;;;9.13;;
44098;SDS011;29762;50.086;14.364;2022-12-18T22:20:30;13.02;;;8.55;;
44098;SDS011;29762;50.086;14.364;2022-12-18T22:25:50;13.95;;;9.40;;
44098;SDS011;29762;50.086;14.364;2022-12-18T22:31:10;12.48;;;8.85;;
44098;SDS011;29762;50.086;14.364;2022-12-18T22:36:33;14.25;;;8.48;;
44098;SDS011;29762;50.086;14.364;2022-12-18T22:41:55;10.48;;;8.20;;
44098;SDS011;29762;50.086;14.364;2022-12-18T22:47:15;11.25;;;8.50;;
44098;SDS011;29762;50.086;14.364;2022-12-18T22:52:35;10.60;;;8.05;;
44098;SDS011;29762;50.086;14.364;2022-12-18T22:57:54;9.98;;;7.80;;
44098;SDS011;29762;50.086;14.364;2022-12-18T23:03:14;12.98;;;8.90;;
44098;SDS011;29762;50.086;14.364;2022-12-18T23:08:33;10.57;;;7.95;;
44098;SDS011;29762;50.086;14.364;2022-12-18T23:13:53;12.43;;;8.43;;
44098;SDS011;29762;50.086;14.364;2022-12-18T23:19:13;11.35;;;8.38;;
44098;SDS011;29762;50.086;14.364;2022-12-18T23:24:33;11.10;;;7.93;;
44098;SDS011;29762;50.086;14.364;2022-12-18T23:29:53;10.27;;;7.57;;
44098;SDS011;29762;50.086;14.364;2022-12-18T23:35:12;9.90;;;7.93;;
44098;SDS011;29762;50.086;14.364;2022-12-18T23:40:32;12.50;;;7.88;;
44098;SDS011;29762;50.086;14.364;2022-12-18T23:45:52;10.02;;;7.97;;
44098;SDS011;29762;50.086;14.364;2022-12-18T23:51:13;11.88;;;7.85;;
44098;SDS011;29762;50.086;14.364;2022-12-18T23:56:34;10.63;;;7.72;;
